createdAt,value
2023-01-13T00:00:00.195Z,1.80
2023-01-13T00:05:03.751Z,2.23
2023-01-13T00:10:09.383Z,1.40
2023-01-13T00:15:13.583Z,1.80
2023-01-13T00:20:17.386Z,1.40
2023-01-13T00:25:20.803Z,2.07
2023-01-13T00:30:24.380Z,1.43
2023-01-13T05:34:28.696Z,2.50
2023-01-13T05:39:51.464Z,2.50
2023-01-13T05:44:54.296Z,2.07
2023-01-13T05:49:57.133Z,2.10
2023-01-13T05:54:59.945Z,2.43
2023-01-13T06:00:03.645Z,2.20
2023-01-13T06:05:06.684Z,2.03
2023-01-13T06:10:10.258Z,2.23
2023-01-13T06:15:13.125Z,2.53
2023-01-13T06:20:16.981Z,1.97
2023-01-13T06:25:37.973Z,2.60
2023-01-13T06:30:45.840Z,2.13
2023-01-13T06:35:53.453Z,2.83
2023-01-13T06:40:56.388Z,2.43
2023-01-13T06:45:59.226Z,1.90
2023-01-13T06:51:02.995Z,2.53
2023-01-13T06:56:08.958Z,2.50
2023-01-13T07:01:11.887Z,2.43
2023-01-13T07:06:14.826Z,2.17
2023-01-13T07:11:17.685Z,2.43
2023-01-13T07:16:20.555Z,2.13
2023-01-13T07:21:23.378Z,2.80
2023-01-13T07:26:26.172Z,2.43
2023-01-13T07:31:29.191Z,2.33
2023-01-13T07:36:32.152Z,3.20
2023-01-13T07:41:53.391Z,2.57
2023-01-13T07:46:56.223Z,2.70
2023-01-13T07:51:59.099Z,3.70
2023-01-13T07:57:01.948Z,3.07
2023-01-13T08:02:04.967Z,3.30
2023-01-13T08:07:08.123Z,3.37
2023-01-13T08:12:29.307Z,3.60
2023-01-13T08:17:32.223Z,3.83
2023-01-13T08:22:35.077Z,3.53
2023-01-13T08:27:37.926Z,3.07
2023-01-13T08:32:42.379Z,3.03
2023-01-13T08:37:46.269Z,3.90
2023-01-13T08:42:49.231Z,2.90
2023-01-13T08:47:52.082Z,3.57
2023-01-13T08:52:54.926Z,3.93
2023-01-13T08:58:14.281Z,3.23
2023-01-13T09:03:18.296Z,4.20
2023-01-13T09:08:21.236Z,3.10
2023-01-13T09:13:24.104Z,3.53
2023-01-13T09:18:26.934Z,3.97
2023-01-13T09:23:29.736Z,2.87
2023-01-13T09:28:33.505Z,2.77
2023-01-13T09:33:54.782Z,3.03
2023-01-13T09:38:57.558Z,3.27
2023-01-13T09:44:01.908Z,3.70
2023-01-13T09:49:05.242Z,3.03
2023-01-13T09:54:16.576Z,2.97
2023-01-13T09:59:19.569Z,2.87
2023-01-13T10:04:22.491Z,3.10
2023-01-13T10:09:34.647Z,2.73
2023-01-13T10:14:51.702Z,2.80
2023-01-13T10:20:17.748Z,3.03
2023-01-13T10:25:52.824Z,2.93
2023-01-13T10:30:55.794Z,3.23
2023-01-13T10:36:00.040Z,3.47
2023-01-13T10:41:19.636Z,3.37
2023-01-13T10:46:22.609Z,2.63
2023-01-13T10:51:40.031Z,2.60
2023-01-13T10:56:44.960Z,2.20
2023-01-13T11:01:58.652Z,2.83
2023-01-13T11:07:03.223Z,3.20
2023-01-13T11:12:08.355Z,3.07
2023-01-13T11:17:29.348Z,2.53
2023-01-13T11:22:43.602Z,3.20
2023-01-13T11:28:01.581Z,2.13
2023-01-13T11:33:09.922Z,2.70
2023-01-13T11:38:28.940Z,3.30
2023-01-13T11:43:51.927Z,2.70
2023-01-13T11:48:56.417Z,3.27
2023-01-13T11:54:04.984Z,2.40
2023-01-13T11:59:28.971Z,2.83
2023-01-13T12:05:08.804Z,3.10
2023-01-13T12:10:14.566Z,2.63
2023-01-13T12:15:22.461Z,2.70
2023-01-13T12:20:43.971Z,2.77
2023-01-13T12:25:51.945Z,3.17
2023-01-13T12:31:01.351Z,3.10
2023-01-13T12:36:14.014Z,3.07
2023-01-13T12:42:03.695Z,3.03
2023-01-13T12:47:33.378Z,3.17
2023-01-13T12:52:44.885Z,2.77
2023-01-13T12:58:06.505Z,4.07
2023-01-13T13:03:12.470Z,2.90
2023-01-13T13:08:36.362Z,3.03
2023-01-13T13:13:44.901Z,2.53
2023-01-13T13:18:50.684Z,2.83
2023-01-13T13:23:56.445Z,3.00
2023-01-13T13:29:35.793Z,2.80
2023-01-13T13:35:16.637Z,3.43
2023-01-13T13:40:38.430Z,3.63
2023-01-13T13:46:10.294Z,3.50
2023-01-13T13:51:28.446Z,3.60
2023-01-13T13:56:35.930Z,2.80
2023-01-13T14:01:41.340Z,3.17
2023-01-13T14:06:55.988Z,2.97
2023-01-13T14:12:04.299Z,3.20
2023-01-13T14:17:15.245Z,2.90
2023-01-13T14:22:18.047Z,3.17
2023-01-13T14:27:21.406Z,2.90
2023-01-13T14:32:31.357Z,2.97
2023-01-13T14:37:39.144Z,2.77
2023-01-13T14:42:42.832Z,3.10
2023-01-13T14:47:52.929Z,3.17
2023-01-13T14:52:57.445Z,3.43
2023-01-13T14:58:22.268Z,3.47
2023-01-13T15:03:25.078Z,3.17
2023-01-13T15:08:30.179Z,4.27
2023-01-13T15:13:59.223Z,4.47
2023-01-13T15:19:02.152Z,3.90
2023-01-13T15:24:05.384Z,4.17
2023-01-13T15:29:14.224Z,4.90
2023-01-13T15:34:17.221Z,3.80
2023-01-13T15:39:20.101Z,4.33
2023-01-13T15:44:41.736Z,5.23
2023-01-13T15:49:45.577Z,3.97
2023-01-13T15:54:48.877Z,3.40
2023-01-13T15:59:53.654Z,3.53
2023-01-13T16:04:56.645Z,3.17
2023-01-13T16:10:01.778Z,3.57
2023-01-13T16:15:04.872Z,3.30
2023-01-13T16:20:16.524Z,2.23
2023-01-13T16:25:22.439Z,2.30
2023-01-13T16:30:31.805Z,2.60
2023-01-13T16:35:35.710Z,2.63
2023-01-13T16:40:48.908Z,2.60
2023-01-13T16:45:51.737Z,2.43
2023-01-13T16:50:54.936Z,2.77
2023-01-13T16:55:57.803Z,2.93
2023-01-13T17:01:00.714Z,2.80
2023-01-13T17:06:04.146Z,3.60
2023-01-13T17:11:07.004Z,3.07
2023-01-13T17:16:20.288Z,2.87
2023-01-13T17:21:23.224Z,3.23
2023-01-13T17:26:33.804Z,2.47
2023-01-13T17:31:37.059Z,2.47
2023-01-13T17:36:40.213Z,2.90
2023-01-13T17:41:43.067Z,2.80
2023-01-13T17:46:46.432Z,2.57
2023-01-13T17:51:51.150Z,2.63
2023-01-13T17:56:55.281Z,3.20
2023-01-13T18:01:58.319Z,3.03
2023-01-13T18:07:01.258Z,3.20
2023-01-13T18:12:04.474Z,3.33
2023-01-13T18:17:07.431Z,3.87
2023-01-13T18:22:32.476Z,4.27
2023-01-13T18:27:38.005Z,3.27
2023-01-13T18:32:40.813Z,4.13
2023-01-13T18:37:44.347Z,3.90
2023-01-13T18:42:54.492Z,3.80
2023-01-13T18:48:00.455Z,3.20
2023-01-13T18:53:03.443Z,2.90
2023-01-13T18:58:06.410Z,3.60
2023-01-13T19:03:09.311Z,4.00
2023-01-13T19:08:12.164Z,4.30
2023-01-13T19:13:16.709Z,5.67
2023-01-13T19:18:22.113Z,4.67
2023-01-13T19:23:24.933Z,5.43
2023-01-13T19:28:28.166Z,5.50
2023-01-13T19:33:35.900Z,4.97
2023-01-13T19:38:38.927Z,3.60
2023-01-13T19:44:00.363Z,3.97
2023-01-13T19:49:03.462Z,4.10
2023-01-13T19:54:06.285Z,3.70
2023-01-13T19:59:11.031Z,3.93
2023-01-13T20:04:14.514Z,4.20
2023-01-13T20:09:17.570Z,3.37
2023-01-13T20:14:20.960Z,5.33
2023-01-13T20:19:24.021Z,4.83
2023-01-13T20:24:26.885Z,4.60
2023-01-13T20:29:29.861Z,5.63
2023-01-13T20:34:32.752Z,5.80
2023-01-13T20:39:36.276Z,5.17
2023-01-13T20:44:39.263Z,4.97
2023-01-13T20:49:42.134Z,5.23
2023-01-13T20:54:45.156Z,5.17
2023-01-13T20:59:48.306Z,4.77
2023-01-13T21:04:51.404Z,4.60
2023-01-13T21:09:54.340Z,4.83
2023-01-13T21:15:15.638Z,4.93
2023-01-13T21:20:18.505Z,4.53
2023-01-13T21:25:21.344Z,5.10
2023-01-13T21:30:24.195Z,4.67
2023-01-13T21:35:27.147Z,5.50
2023-01-13T21:40:30.136Z,5.30
2023-01-13T21:45:51.577Z,5.13
2023-01-13T21:50:54.540Z,4.17
2023-01-13T21:55:57.380Z,4.50
2023-01-13T22:01:02.790Z,4.77
2023-01-13T22:06:05.962Z,4.60
2023-01-13T22:11:08.805Z,4.63
2023-01-13T22:16:11.929Z,5.17
2023-01-13T22:21:14.817Z,4.30
2023-01-13T22:26:17.774Z,4.40
2023-01-13T22:31:23.686Z,4.40
2023-01-13T22:36:27.178Z,4.27
2023-01-13T22:41:30.024Z,5.30
2023-01-13T22:46:32.886Z,4.10
2023-01-13T22:51:35.777Z,4.83
2023-01-13T22:56:39.094Z,4.60
2023-01-13T23:01:42.320Z,6.10
2023-01-13T23:06:45.225Z,4.53
2023-01-13T23:11:48.126Z,5.17
2023-01-13T23:16:51.118Z,4.77
2023-01-13T23:21:53.987Z,4.40
2023-01-13T23:26:57.226Z,5.10
2023-01-13T23:32:00.112Z,4.90
2023-01-13T23:37:03.015Z,4.10
2023-01-13T23:42:05.851Z,4.23
2023-01-13T23:47:08.743Z,4.13
2023-01-13T23:52:11.655Z,4.33
2023-01-13T23:57:14.476Z,4.70
